Time;durP1;ratioP1;P1;durP2;ratioP2;P2;SDS_P1;SDS_P2;PMS_P1;PMS_P2;Temp;Humidity;BMP_temperature;BMP_pressure;BME280_temperature;BME280_humidity;BME280_pressure;Samples;Min_cycle;Max_cycle;Signal;HPM_P1;HPM_P2
2023/09/19 00:00:25;;;;;;;13.45;2.13;;;15.30;99.90;;;;;;6170314;22;89111;-77
2023/09/19 00:02:59;;;;;;;11.45;2.05;;;15.30;99.90;;;;;;6170679;22;87592;-77
2023/09/19 00:05:27;;;;;;;11.02;2.08;;;15.30;99.90;;;;;;6169765;22;87416;-77
2023/09/19 00:07:54;;;;;;;13.20;1.58;;;15.30;99.90;;;;;;6169601;22;87380;-76
2023/09/19 00:10:30;;;;;;;12.00;1.52;;;15.30;99.90;;;;;;6169910;22;87524;-76
2023/09/19 00:12:58;;;;;;;10.13;1.90;;;15.20;99.90;;;;;;6170999;22;87938;-77
2023/09/19 00:15:24;;;;;;;9.57;2.15;;;15.20;99.90;;;;;;6166233;22;94155;-76
2023/09/19 00:17:54;;;;;;;10.48;2.50;;;15.20;99.90;;;;;;6169079;22;88049;-76
2023/09/19 00:20:22;;;;;;;12.23;2.42;;;15.20;99.90;;;;;;6168532;22;90289;-76
2023/09/19 00:22:51;;;;;;;8.13;1.25;;;15.20;99.90;;;;;;6171917;22;87684;-76
2023/09/19 00:25:17;;;;;;;8.90;1.40;;;15.20;99.90;;;;;;6168918;22;89076;-76
2023/09/19 00:27:44;;;;;;;11.82;1.95;;;15.20;99.90;;;;;;6170735;22;88752;-76
2023/09/19 00:30:15;;;;;;;16.65;2.08;;;15.20;99.90;;;;;;6171239;22;88622;-76
2023/09/19 00:32:42;;;;;;;15.07;2.35;;;15.20;99.90;;;;;;6172088;22;87283;-77
2023/09/19 00:35:11;;;;;;;9.82;1.80;;;15.20;99.90;;;;;;6169133;22;88868;-76
2023/09/19 00:37:39;;;;;;;11.60;1.67;;;15.20;99.90;;;;;;6171283;22;88056;-77
2023/09/19 00:40:06;;;;;;;13.90;1.98;;;15.20;99.90;;;;;;6170968;22;88460;-76
2023/09/19 00:42:33;;;;;;;13.52;2.17;;;15.20;99.90;;;;;;6171758;22;87798;-76
2023/09/19 00:45:03;;;;;;;10.95;1.60;;;15.20;99.90;;;;;;6171841;22;88428;-76
2023/09/19 00:47:29;;;;;;;12.85;1.60;;;15.20;99.90;;;;;;6168314;22;89042;-77
2023/09/19 00:49:56;;;;;;;11.98;2.25;;;15.20;99.90;;;;;;6168242;22;89576;-76
2023/09/19 00:52:23;;;;;;;10.43;1.95;;;15.20;99.90;;;;;;6170582;22;87576;-76
2023/09/19 00:54:50;;;;;;;11.43;1.80;;;15.20;99.90;;;;;;6172003;22;87718;-77
2023/09/19 00:57:19;;;;;;;11.55;1.90;;;15.20;99.90;;;;;;6171654;22;87123;-76
2023/09/19 00:59:48;;;;;;;12.77;1.63;;;15.20;99.90;;;;;;6171595;22;87506;-76
2023/09/19 01:02:14;;;;;;;10.52;1.70;;;15.20;99.90;;;;;;6171441;22;87738;-77
2023/09/19 01:04:40;;;;;;;14.25;1.88;;;15.20;99.90;;;;;;6169488;22;88859;-76
2023/09/19 01:07:08;;;;;;;14.45;1.80;;;15.20;99.90;;;;;;6170808;22;89407;-76
2023/09/19 01:09:34;;;;;;;12.75;2.28;;;15.20;99.90;;;;;;6171622;22;87833;-76
2023/09/19 01:12:04;;;;;;;11.98;2.05;;;15.10;99.90;;;;;;6171301;22;87766;-75
2023/09/19 01:14:44;;;;;;;18.00;2.75;;;15.10;99.90;;;;;;6170867;22;87672;-76
2023/09/19 01:17:15;;;;;;;15.98;1.92;;;15.10;99.90;;;;;;6172063;22;89034;-76
2023/09/19 01:20:18;;;;;;;11.98;2.00;;;15.10;99.90;;;;;;6171582;22;87848;-76
2023/09/19 01:23:11;;;;;;;15.43;2.38;;;15.10;99.90;;;;;;6171161;22;87131;-76
2023/09/19 01:25:57;;;;;;;9.60;1.60;;;15.10;99.90;;;;;;6170412;22;87894;-76
2023/09/19 01:28:26;;;;;;;12.63;2.00;;;15.10;99.90;;;;;;6171265;22;88274;-77
2023/09/19 01:31:01;;;;;;;10.77;1.75;;;15.10;99.90;;;;;;6173037;22;88620;-76
2023/09/19 01:33:27;;;;;;;13.75;2.22;;;15.10;99.90;;;;;;6172471;22;87535;-76
2023/09/19 01:35:57;;;;;;;11.63;2.42;;;15.10;99.90;;;;;;6170304;22;88639;-77
2023/09/19 01:38:23;;;;;;;7.65;2.25;;;15.10;99.90;;;;;;6171537;22;87807;-76
2023/09/19 01:41:03;;;;;;;17.10;1.83;;;15.10;99.90;;;;;;6170100;22;87731;-77
2023/09/19 01:43:40;;;;;;;13.40;2.13;;;15.00;99.90;;;;;;6171893;22;87656;-77
2023/09/19 01:46:19;;;;;;;8.90;1.55;;;15.00;99.90;;;;;;6171639;22;87699;-77
2023/09/19 01:49:32;;;;;;;14.35;2.20;;;15.00;99.90;;;;;;6173098;22;87850;-77
2023/09/19 01:52:16;;;;;;;10.63;1.63;;;15.00;99.90;;;;;;6156868;22;91445;-77
2023/09/19 01:55:09;;;;;;;12.95;2.10;;;15.00;99.90;;;;;;6172910;22;87748;-77
2023/09/19 01:57:50;;;;;;;12.23;2.42;;;15.00;99.90;;;;;;6167516;22;93243;-77
2023/09/19 02:00:18;;;;;;;9.35;2.13;;;15.00;99.90;;;;;;6172559;22;87603;-76
2023/09/19 02:02:47;;;;;;;12.82;2.10;;;14.90;99.90;;;;;;6170803;22;87333;-77
2023/09/19 02:05:13;;;;;;;13.15;2.63;;;14.90;99.90;;;;;;6172208;22;87738;-77
2023/09/19 02:07:40;;;;;;;25.92;3.10;;;14.90;99.90;;;;;;6171854;22;94327;-77
2023/09/19 02:10:06;;;;;;;13.00;2.42;;;14.90;99.90;;;;;;6170091;22;88501;-76
2023/09/19 02:12:33;;;;;;;13.68;2.33;;;14.90;99.90;;;;;;6172880;22;88213;-77
2023/09/19 02:14:59;;;;;;;13.57;2.42;;;14.90;99.90;;;;;;6174444;22;86945;-77
2023/09/19 02:17:28;;;;;;;19.83;2.42;;;14.90;99.90;;;;;;6173809;22;87933;-77
2023/09/19 02:19:58;;;;;;;12.75;1.85;;;14.80;99.90;;;;;;6173667;22;88630;-76
2023/09/19 02:22:24;;;;;;;22.10;2.85;;;14.80;99.90;;;;;;6171950;22;89942;-77
2023/09/19 02:24:50;;;;;;;16.92;2.33;;;14.80;99.90;;;;;;6173566;22;88065;-77
2023/09/19 02:27:17;;;;;;;17.25;2.67;;;14.80;99.90;;;;;;6172786;22;87493;-78
2023/09/19 02:29:43;;;;;;;12.85;2.50;;;14.80;99.90;;;;;;6173865;22;89408;-77
2023/09/19 02:32:11;;;;;;;16.27;2.05;;;14.70;99.90;;;;;;6173520;22;88832;-77
2023/09/19 02:34:38;;;;;;;14.30;2.17;;;14.70;99.90;;;;;;6173313;22;87400;-77
2023/09/19 02:37:08;;;;;;;11.60;2.08;;;14.70;99.90;;;;;;6172619;22;87878;-77
2023/09/19 02:39:35;;;;;;;14.85;1.75;;;14.70;99.90;;;;;;6173330;22;87521;-76
2023/09/19 02:42:00;;;;;;;10.93;2.70;;;14.60;99.90;;;;;;6174275;22;87612;-77
2023/09/19 02:44:27;;;;;;;16.63;2.38;;;14.70;99.90;;;;;;6173967;22;87742;-75
2023/09/19 02:46:53;;;;;;;14.65;2.35;;;14.60;99.90;;;;;;6172173;22;88437;-76
2023/09/19 02:49:18;;;;;;;15.30;2.30;;;14.60;99.90;;;;;;6172169;22;89095;-76
2023/09/19 02:51:44;;;;;;;20.10;2.38;;;14.60;99.90;;;;;;6171139;22;91534;-76
2023/09/19 02:54:11;;;;;;;14.25;2.42;;;14.60;99.90;;;;;;6168042;22;87687;-76
2023/09/19 02:56:37;;;;;;;12.85;2.25;;;14.60;99.90;;;;;;6168250;22;87287;-76
2023/09/19 02:59:03;;;;;;;8.50;1.80;;;14.60;99.90;;;;;;6166505;22;90322;-77
2023/09/19 03:01:28;;;;;;;9.25;1.60;;;14.50;99.90;;;;;;6168306;22;87912;-76
2023/09/19 03:03:54;;;;;;;12.05;1.77;;;14.50;99.90;;;;;;6170796;22;87125;-76
2023/09/19 03:06:21;;;;;;;13.27;2.05;;;14.50;99.90;;;;;;6168452;22;87542;-76
2023/09/19 03:08:48;;;;;;;14.25;1.70;;;14.50;99.90;;;;;;6168457;22;87679;-77
2023/09/19 03:11:16;;;;;;;13.35;1.75;;;14.50;99.90;;;;;;6166894;22;89483;-75
2023/09/19 03:13:42;;;;;;;10.30;2.03;;;14.50;99.90;;;;;;6167880;22;87469;-76
2023/09/19 03:16:08;;;;;;;15.35;2.03;;;14.50;99.90;;;;;;6168983;22;88152;-76
2023/09/19 03:18:34;;;;;;;12.98;2.35;;;14.50;99.90;;;;;;6168998;22;88406;-77
2023/09/19 03:21:00;;;;;;;15.52;2.40;;;14.40;99.90;;;;;;6168602;22;90786;-76
2023/09/19 03:23:27;;;;;;;16.33;2.28;;;14.50;99.90;;;;;;6166628;22;87633;-77
2023/09/19 03:25:53;;;;;;;16.02;2.40;;;14.50;99.90;;;;;;6167452;22;87451;-76
2023/09/19 03:28:20;;;;;;;17.50;2.25;;;14.50;99.90;;;;;;6169093;22;87273;-78
2023/09/19 03:30:46;;;;;;;20.70;2.80;;;14.40;99.90;;;;;;6169821;22;87632;-76
2023/09/19 03:33:12;;;;;;;11.27;2.92;;;14.40;99.90;;;;;;6168671;22;87603;-76
2023/09/19 03:35:39;;;;;;;19.23;2.53;;;14.40;99.90;;;;;;6168420;22;88513;-76
2023/09/19 03:38:05;;;;;;;19.67;2.55;;;14.40;99.90;;;;;;6167725;22;87809;-76
2023/09/19 03:40:31;;;;;;;10.23;1.90;;;14.40;99.90;;;;;;6167252;22;90364;-76
2023/09/19 03:43:00;;;;;;;19.55;2.72;;;14.40;99.90;;;;;;6168677;22;87594;-77
2023/09/19 03:45:25;;;;;;;18.83;2.28;;;14.40;99.90;;;;;;6167066;22;88328;-77
2023/09/19 03:47:51;;;;;;;9.60;2.03;;;14.40;99.90;;;;;;6167127;22;88599;-77
2023/09/19 03:50:17;;;;;;;27.05;3.50;;;14.40;99.90;;;;;;6167444;22;89971;-76
2023/09/19 03:52:46;;;;;;;19.58;2.70;;;14.40;99.90;;;;;;6093468;22;1746992;-77
2023/09/19 03:55:11;;;;;;;17.52;3.03;;;14.50;99.90;;;;;;6168237;22;89565;-76
2023/09/19 03:57:37;;;;;;;21.20;3.28;;;14.50;99.90;;;;;;6170030;22;91685;-76
2023/09/19 04:00:11;;;;;;;14.55;2.20;;;14.50;99.90;;;;;;6171141;22;88887;-77
2023/09/19 04:02:38;;;;;;;13.60;2.65;;;14.50;99.90;;;;;;6171219;22;87728;-77
2023/09/19 04:05:04;;;;;;;13.82;2.53;;;14.60;99.90;;;;;;6170801;22;87695;-76
2023/09/19 04:07:29;;;;;;;10.73;2.00;;;14.60;99.90;;;;;;6169305;22;88656;-77
2023/09/19 04:09:55;;;;;;;20.95;2.92;;;14.60;99.80;;;;;;6170708;22;88296;-77
2023/09/19 04:12:21;;;;;;;10.77;2.65;;;14.70;99.90;;;;;;6171718;22;87706;-75
2023/09/19 04:14:47;;;;;;;12.88;2.05;;;14.70;99.70;;;;;;6169511;22;88337;-76
2023/09/19 04:17:12;;;;;;;14.95;2.33;;;14.70;99.70;;;;;;6170904;22;88364;-76
2023/09/19 04:19:38;;;;;;;14.38;2.00;;;14.70;99.70;;;;;;6170461;22;87759;-77
2023/09/19 04:22:04;;;;;;;8.73;2.22;;;14.70;99.70;;;;;;6171877;22;87658;-77
2023/09/19 04:24:32;;;;;;;17.48;2.78;;;14.70;99.90;;;;;;6170552;22;92305;-76
2023/09/19 04:26:59;;;;;;;15.43;2.53;;;14.70;99.90;;;;;;6167014;22;89905;-77
2023/09/19 04:29:26;;;;;;;15.77;2.33;;;14.70;99.90;;;;;;6169933;22;88531;-78
2023/09/19 04:31:52;;;;;;;16.02;2.38;;;14.70;99.90;;;;;;6170938;22;87643;-77
2023/09/19 04:34:18;;;;;;;14.65;2.67;;;14.70;99.90;;;;;;6170839;22;87855;-76
2023/09/19 04:36:43;;;;;;;17.95;2.13;;;14.60;99.90;;;;;;6170303;22;88654;-76
2023/09/19 04:39:10;;;;;;;10.88;2.25;;;14.60;99.90;;;;;;6167934;22;89039;-77
2023/09/19 04:41:40;;;;;;;13.38;1.70;;;14.60;99.90;;;;;;6171386;22;86797;-77
2023/09/19 04:44:07;;;;;;;12.82;2.20;;;14.60;99.90;;;;;;6171163;22;87752;-75
2023/09/19 04:46:33;;;;;;;11.98;2.63;;;14.60;99.90;;;;;;6171024;22;88229;-76
2023/09/19 04:48:59;;;;;;;29.15;2.05;;;14.60;99.90;;;;;;6169669;22;90362;-76
2023/09/19 04:51:26;;;;;;;15.73;2.33;;;14.60;99.90;;;;;;6167752;22;87623;-77
2023/09/19 04:53:52;;;;;;;9.65;2.00;;;14.50;99.90;;;;;;6170682;22;87574;-76
2023/09/19 04:56:18;;;;;;;12.38;2.05;;;14.50;99.90;;;;;;6170460;22;87533;-76
2023/09/19 04:58:44;;;;;;;18.13;2.60;;;14.40;99.90;;;;;;6170430;22;87933;-76
2023/09/19 05:01:12;;;;;;;10.27;2.50;;;14.40;99.90;;;;;;6169464;22;87413;-76
2023/09/19 05:03:38;;;;;;;13.23;1.98;;;14.30;99.90;;;;;;6171244;22;87616;-77
2023/09/19 05:06:05;;;;;;;17.05;2.58;;;14.30;99.90;;;;;;6169490;22;90843;-76
2023/09/19 05:08:30;;;;;;;16.13;2.58;;;14.30;99.90;;;;;;6170970;22;87592;-75
2023/09/19 05:10:56;;;;;;;19.10;2.50;;;14.20;99.90;;;;;;6168559;22;87877;-77
2023/09/19 05:13:24;;;;;;;15.10;2.47;;;14.20;99.90;;;;;;6170196;22;88486;-76
2023/09/19 05:15:52;;;;;;;14.55;2.05;;;14.20;99.90;;;;;;6172384;22;88730;-78
2023/09/19 05:18:18;;;;;;;30.25;4.05;;;14.20;99.90;;;;;;6171826;22;88830;-76
2023/09/19 05:20:44;;;;;;;11.02;1.85;;;14.10;99.90;;;;;;6171541;22;87593;-76
2023/09/19 05:23:11;;;;;;;19.90;3.13;;;14.10;99.90;;;;;;6170628;22;87443;-76
2023/09/19 05:25:38;;;;;;;20.65;2.20;;;14.10;99.90;;;;;;6169206;22;87776;-75
2023/09/19 05:28:05;;;;;;;13.40;1.98;;;14.10;99.90;;;;;;6168297;22;88300;-77
2023/09/19 05:30:35;;;;;;;12.70;2.13;;;14.10;99.90;;;;;;6172257;22;86765;-75
2023/09/19 05:33:02;;;;;;;16.95;2.90;;;14.20;99.90;;;;;;6193525;22;87894;-77
2023/09/19 05:35:28;;;;;;;14.95;3.00;;;14.10;99.90;;;;;;6170256;22;89324;-76
2023/09/19 05:37:55;;;;;;;13.30;2.35;;;14.10;99.90;;;;;;6168964;22;88691;-76
2023/09/19 05:40:20;;;;;;;12.60;1.95;;;14.10;99.90;;;;;;6169419;22;88081;-76
2023/09/19 05:42:47;;;;;;;25.05;3.40;;;14.10;99.90;;;;;;6169498;22;87856;-77
2023/09/19 05:45:13;;;;;;;13.45;1.60;;;14.20;99.90;;;;;;6167489;22;91544;-77
2023/09/19 05:47:44;;;;;;;11.55;1.98;;;14.10;99.90;;;;;;6171371;22;89150;-76
2023/09/19 05:50:10;;;;;;;10.65;2.10;;;14.20;99.90;;;;;;6172247;22;87103;-76
2023/09/19 05:52:39;;;;;;;12.05;1.92;;;14.10;99.90;;;;;;6169444;22;90543;-76
2023/09/19 05:55:06;;;;;;;14.45;2.15;;;14.20;99.90;;;;;;6170942;22;86977;-77
2023/09/19 05:57:35;;;;;;;13.00;2.40;;;14.20;99.90;;;;;;6170434;22;89135;-77
2023/09/19 06:00:17;;;;;;;16.55;2.22;;;14.20;99.90;;;;;;6172202;22;87741;-78
2023/09/19 06:02:44;;;;;;;20.33;2.78;;;14.20;99.90;;;;;;6170513;22;88445;-77
2023/09/19 06:05:10;;;;;;;13.48;1.73;;;14.20;99.90;;;;;;6170825;22;88574;-76
2023/09/19 06:07:37;;;;;;;18.02;2.15;;;14.20;99.90;;;;;;6171293;22;88269;-75
2023/09/19 06:10:07;;;;;;;16.75;2.35;;;14.30;99.90;;;;;;6171286;22;87762;-77
2023/09/19 06:12:37;;;;;;;11.45;2.15;;;14.20;99.90;;;;;;6170477;22;91411;-77
2023/09/19 06:15:08;;;;;;;13.07;2.03;;;14.30;99.90;;;;;;6170821;22;88092;-77
2023/09/19 06:17:37;;;;;;;11.68;1.98;;;14.30;99.90;;;;;;6170584;22;91754;-76
2023/09/19 06:20:12;;;;;;;14.05;2.05;;;14.30;99.90;;;;;;6169928;22;87043;-77
2023/09/19 06:22:41;;;;;;;18.48;2.33;;;14.30;99.90;;;;;;6170934;22;87543;-77
2023/09/19 06:25:11;;;;;;;10.43;1.63;;;14.40;99.90;;;;;;6193973;22;89698;-77
2023/09/19 06:27:37;;;;;;;11.80;1.67;;;14.40;99.90;;;;;;6170204;22;88645;-77
2023/09/19 06:30:03;;;;;;;14.25;2.08;;;14.40;99.90;;;;;;6170671;22;87390;-76
2023/09/19 06:32:28;;;;;;;8.20;1.95;;;14.40;99.90;;;;;;6169160;22;87696;-77
2023/09/19 06:34:54;;;;;;;11.80;1.98;;;14.50;99.90;;;;;;6168741;22;93102;-74
2023/09/19 06:37:22;;;;;;;13.10;1.75;;;14.50;99.90;;;;;;6170442;22;88263;-75
2023/09/19 06:39:49;;;;;;;11.07;1.92;;;14.50;99.90;;;;;;6169539;22;87690;-74
2023/09/19 06:42:17;;;;;;;14.02;1.85;;;14.60;99.90;;;;;;6169743;22;88851;-74
2023/09/19 06:44:42;;;;;;;12.80;2.10;;;14.60;99.90;;;;;;6169865;22;87859;-74
2023/09/19 06:47:09;;;;;;;14.90;2.80;;;14.60;99.90;;;;;;6167486;22;89361;-75
2023/09/19 06:49:36;;;;;;;14.23;2.15;;;14.60;99.90;;;;;;6170721;22;87555;-74
2023/09/19 06:52:02;;;;;;;16.90;2.75;;;14.70;99.90;;;;;;6170725;22;88838;-74
2023/09/19 06:54:31;;;;;;;16.42;2.75;;;14.70;99.90;;;;;;6168499;22;87391;-73
2023/09/19 06:56:58;;;;;;;17.17;2.33;;;14.80;99.90;;;;;;6170558;22;87922;-75
2023/09/19 06:59:24;;;;;;;20.20;2.90;;;14.80;99.90;;;;;;6171021;22;87928;-75
2023/09/19 07:01:50;;;;;;;21.85;2.97;;;14.90;99.90;;;;;;6168913;22;88760;-76
2023/09/19 07:04:19;;;;;;;11.65;1.58;;;14.90;99.90;;;;;;6169435;22;88720;-75
2023/09/19 07:06:49;;;;;;;15.68;1.90;;;15.00;99.90;;;;;;6168620;22;91141;-75
2023/09/19 07:09:15;;;;;;;14.88;2.17;;;15.00;99.90;;;;;;6171537;22;86700;-75
2023/09/19 07:11:41;;;;;;;14.43;2.40;;;15.10;99.90;;;;;;6168933;22;90495;-73
2023/09/19 07:14:07;;;;;;;16.58;2.13;;;15.10;99.90;;;;;;6168322;22;90303;-76
2023/09/19 07:16:32;;;;;;;10.18;1.60;;;15.20;99.90;;;;;;6169250;22;88463;-76
2023/09/19 07:18:58;;;;;;;14.75;1.60;;;15.30;99.90;;;;;;6169736;22;87681;-76
2023/09/19 07:21:24;;;;;;;15.45;1.95;;;15.30;99.90;;;;;;6168411;22;89858;-76
2023/09/19 07:23:50;;;;;;;7.35;1.65;;;15.40;99.90;;;;;;6170803;22;88126;-76
2023/09/19 07:26:16;;;;;;;12.88;1.52;;;15.40;99.60;;;;;;6169631;22;87670;-75
2023/09/19 07:28:42;;;;;;;20.20;2.50;;;15.40;99.30;;;;;;6169543;22;87666;-75
2023/09/19 07:31:09;;;;;;;12.95;2.42;;;15.40;99.50;;;;;;6169076;22;90188;-76
2023/09/19 07:33:36;;;;;;;14.27;2.13;;;15.50;99.60;;;;;;6172023;22;88514;-74
2023/09/19 07:36:02;;;;;;;12.73;1.90;;;15.50;99.10;;;;;;6169266;22;90270;-74
2023/09/19 07:38:27;;;;;;;11.00;1.40;;;15.50;99.10;;;;;;6169841;22;87550;-75
2023/09/19 07:40:53;;;;;;;15.63;2.10;;;15.60;99.50;;;;;;6171629;22;88734;-75
2023/09/19 07:43:19;;;;;;;12.32;2.05;;;15.60;99.10;;;;;;6170015;22;87677;-75
2023/09/19 07:45:45;;;;;;;16.67;2.25;;;15.70;98.60;;;;;;6169795;22;89965;-75
2023/09/19 07:48:15;;;;;;;13.20;1.80;;;15.70;98.60;;;;;;6171180;22;87679;-74
2023/09/19 07:50:43;;;;;;;9.70;1.50;;;15.70;98.50;;;;;;6171635;22;87585;-75
2023/09/19 07:53:08;;;;;;;15.48;2.28;;;15.80;98.50;;;;;;6170794;22;88515;-75
2023/09/19 07:55:34;;;;;;;9.80;1.83;;;15.80;98.80;;;;;;6171491;22;88218;-76
2023/09/19 07:58:00;;;;;;;9.77;1.73;;;15.90;98.40;;;;;;6173995;22;86890;-75
2023/09/19 08:00:26;;;;;;;19.90;2.83;;;15.90;98.40;;;;;;6173180;22;87513;-76
2023/09/19 08:02:52;;;;;;;10.18;1.98;;;16.00;97.80;;;;;;6171160;22;92298;-76
2023/09/19 08:05:18;;;;;;;14.52;2.28;;;16.00;98.00;;;;;;6168690;22;90080;-76
2023/09/19 08:07:49;;;;;;;14.68;1.67;;;16.10;97.90;;;;;;6172321;22;87820;-76
2023/09/19 08:10:16;;;;;;;12.45;1.77;;;16.10;98.20;;;;;;6171273;22;90932;-76
2023/09/19 08:12:46;;;;;;;8.32;1.42;;;16.20;98.30;;;;;;6173781;22;88070;-76
2023/09/19 08:15:21;;;;;;;10.93;2.33;;;16.30;97.60;;;;;;6172895;22;88288;-76
2023/09/19 08:17:47;;;;;;;14.27;1.98;;;16.30;97.70;;;;;;6173284;22;87577;-76
2023/09/19 08:20:17;;;;;;;8.40;1.90;;;16.40;97.40;;;;;;6172916;22;89168;-75
2023/09/19 08:22:54;;;;;;;5.93;1.40;;;16.40;97.30;;;;;;6173543;22;87616;-75
2023/09/19 08:25:21;;;;;;;13.73;2.00;;;16.50;97.60;;;;;;6173543;22;87406;-75
2023/09/19 08:27:48;;;;;;;9.40;2.13;;;16.50;97.00;;;;;;6174107;22;87904;-76
2023/09/19 08:30:24;;;;;;;12.80;1.42;;;16.50;97.30;;;;;;6173217;22;88713;-76
2023/09/19 08:33:10;;;;;;;14.63;1.85;;;16.60;96.70;;;;;;6172772;22;88413;-76
2023/09/19 08:35:37;;;;;;;16.35;2.13;;;16.70;96.50;;;;;;6169829;22;91304;-75
2023/09/19 08:38:04;;;;;;;13.75;2.78;;;16.70;96.40;;;;;;6170876;22;87497;-76
2023/09/19 08:40:35;;;;;;;12.32;2.30;;;16.80;96.10;;;;;;6172724;22;87596;-76
2023/09/19 08:43:01;;;;;;;10.40;1.80;;;16.90;96.10;;;;;;6173203;22;87592;-76
2023/09/19 08:45:28;;;;;;;12.02;2.00;;;17.00;96.80;;;;;;6173636;22;87714;-76
2023/09/19 08:48:06;;;;;;;12.02;1.30;;;17.10;96.60;;;;;;6174351;22;87018;-75
2023/09/19 08:50:39;;;;;;;14.63;1.98;;;17.10;95.80;;;;;;6172977;22;88650;-74
2023/09/19 08:53:12;;;;;;;14.05;2.53;;;17.20;95.00;;;;;;6171891;22;90878;-75
2023/09/19 08:55:41;;;;;;;20.20;3.47;;;17.20;95.00;;;;;;6171252;22;89408;-75
2023/09/19 08:58:10;;;;;;;9.68;1.63;;;17.20;95.40;;;;;;6170569;22;87442;-76
2023/09/19 09:00:42;;;;;;;13.35;2.15;;;17.30;94.80;;;;;;6172380;22;88056;-76
2023/09/19 09:03:10;;;;;;;14.07;2.00;;;17.30;95.00;;;;;;6173048;22;88108;-75
2023/09/19 09:05:36;;;;;;;14.45;2.33;;;17.30;94.40;;;;;;6172741;22;87573;-73
2023/09/19 09:08:05;;;;;;;6.93;1.80;;;17.40;93.70;;;;;;6171530;22;87379;-74
2023/09/19 09:10:31;;;;;;;12.20;1.67;;;17.50;94.20;;;;;;6169739;22;90681;-75
2023/09/19 09:12:58;;;;;;;7.30;1.40;;;17.60;94.30;;;;;;6172282;22;88702;-75
2023/09/19 09:15:24;;;;;;;10.70;1.95;;;17.60;93.50;;;;;;6171973;22;87591;-76
2023/09/19 09:17:53;;;;;;;8.00;1.40;;;17.60;93.50;;;;;;6172598;22;87406;-76
2023/09/19 09:20:19;;;;;;;13.07;2.05;;;17.60;92.90;;;;;;6169630;22;89059;-75
2023/09/19 09:22:53;;;;;;;9.25;1.60;;;17.70;93.30;;;;;;6170882;22;87745;-76
2023/09/19 09:25:20;;;;;;;13.68;1.80;;;17.80;93.40;;;;;;6169862;22;87720;-76
2023/09/19 09:28:01;;;;;;;9.00;1.63;;;17.80;93.00;;;;;;6172442;22;87793;-77
2023/09/19 09:30:35;;;;;;;7.70;1.70;;;17.90;92.80;;;;;;6172211;22;87426;-76
2023/09/19 09:33:15;;;;;;;10.23;1.50;;;17.90;92.20;;;;;;6171899;22;88586;-76
2023/09/19 09:35:56;;;;;;;9.45;2.00;;;17.90;91.50;;;;;;6170969;22;91158;-76
2023/09/19 09:38:27;;;;;;;11.70;2.00;;;17.90;91.50;;;;;;6171297;22;86565;-75
2023/09/19 09:41:00;;;;;;;9.63;1.45;;;18.00;92.30;;;;;;6172130;22;88048;-76
2023/09/19 09:43:38;;;;;;;9.38;1.50;;;18.10;92.20;;;;;;6173025;22;89373;-74
2023/09/19 09:46:50;;;;;;;12.50;2.03;;;18.20;91.70;;;;;;6173797;22;88549;-76
2023/09/19 09:51:49;;;;;;;13.13;2.25;;;18.20;91.70;;;;;;6175931;22;90539;-76
2023/09/19 09:54:20;;;;;;;11.45;1.92;;;18.30;91.30;;;;;;6177065;22;87896;-77
2023/09/19 09:57:00;;;;;;;14.77;2.15;;;18.30;91.10;;;;;;6176898;22;91146;-76
2023/09/19 10:02:40;;;;;;;11.43;2.22;;;18.30;91.20;;;;;;6179129;22;87392;-78
2023/09/19 10:08:12;;;;;;;12.70;2.25;;;18.50;91.40;;;;;;6185333;22;88659;-78
2023/09/19 10:13:07;;;;;;;10.38;1.77;;;18.60;91.50;;;;;;6177668;22;88295;-77
2023/09/19 10:15:33;;;;;;;13.93;1.95;;;18.60;90.60;;;;;;6177376;22;88233;-78
2023/09/19 10:18:08;;;;;;;7.68;1.45;;;18.70;91.10;;;;;;6176106;22;91279;-77
2023/09/19 10:20:38;;;;;;;10.63;1.80;;;18.70;90.20;;;;;;6178216;22;87492;-77
2023/09/19 10:23:10;;;;;;;7.68;1.67;;;18.70;90.00;;;;;;6181476;22;89006;-77
2023/09/19 10:33:38;;;;;;;10.73;1.90;;;18.90;88.20;;;;;;6187422;22;87274;-79
2023/09/19 10:36:05;;;;;;;10.93;1.77;;;18.80;88.60;;;;;;6186501;22;88077;-77
2023/09/19 10:38:33;;;;;;;9.35;1.27;;;18.90;88.50;;;;;;6185566;22;88099;-78
2023/09/19 10:41:00;;;;;;;7.05;1.27;;;18.90;90.40;;;;;;6181563;22;87358;-74
2023/09/19 10:43:30;;;;;;;8.25;1.45;;;18.90;88.90;;;;;;6180849;22;87785;-77
2023/09/19 10:46:00;;;;;;;8.90;1.20;;;18.80;89.60;;;;;;6183776;22;87863;-79
2023/09/19 10:48:28;;;;;;;6.93;1.33;;;18.90;88.70;;;;;;6179527;22;91272;-78
2023/09/19 10:51:04;;;;;;;10.55;1.27;;;18.90;89.50;;;;;;6179507;22;87811;-78
2023/09/19 10:53:43;;;;;;;8.05;1.67;;;19.10;90.20;;;;;;6181921;22;87215;-78
2023/09/19 10:56:17;;;;;;;6.50;1.40;;;19.10;90.40;;;;;;6183683;22;87821;-75
2023/09/19 10:58:44;;;;;;;10.52;1.85;;;19.30;87.20;;;;;;6174893;22;91223;-76
2023/09/19 11:01:14;;;;;;;7.32;1.88;;;19.40;86.90;;;;;;6181310;22;87126;-77
2023/09/19 11:03:43;;;;;;;8.93;1.50;;;19.50;86.80;;;;;;6185321;22;88174;-77
2023/09/19 11:06:18;;;;;;;8.45;1.40;;;19.60;85.90;;;;;;6180815;22;88069;-77
2023/09/19 11:11:43;;;;;;;8.43;1.27;;;19.80;87.80;;;;;;6183695;22;87715;-75
2023/09/19 11:14:25;;;;;;;6.25;1.10;;;19.90;85.60;;;;;;6185232;22;87455;-76
2023/09/19 11:17:13;;;;;;;5.75;1.17;;;20.00;85.50;;;;;;6184151;22;87768;-75
2023/09/19 11:22:52;;;;;;;6.47;1.15;;;20.10;85.60;;;;;;6179355;22;86783;-78
2023/09/19 11:25:29;;;;;;;4.10;0.77;;;20.20;84.80;;;;;;6178239;22;87569;-76
2023/09/19 11:28:08;;;;;;;5.25;1.58;;;20.20;85.10;;;;;;6177558;22;87745;-77
2023/09/19 11:30:35;;;;;;;6.70;1.38;;;20.20;85.10;;;;;;6177784;22;92221;-80
2023/09/19 11:33:41;;;;;;;7.50;1.05;;;20.30;84.00;;;;;;6201462;22;87089;-75
2023/09/19 11:36:24;;;;;;;5.60;1.25;;;20.40;83.60;;;;;;6185673;22;87644;-77
2023/09/19 11:38:50;;;;;;;5.07;1.07;;;20.50;82.60;;;;;;6186931;22;87613;-78
2023/09/19 11:41:25;;;;;;;7.85;1.20;;;20.60;82.70;;;;;;6188137;22;87854;-79
2023/09/19 11:44:03;;;;;;;5.60;1.10;;;20.60;83.60;;;;;;6188724;22;86973;-79
2023/09/19 11:49:15;;;;;;;7.68;1.40;;;20.60;82.20;;;;;;6171828;22;89195;-79
2023/09/19 11:51:45;;;;;;;4.03;0.80;;;20.70;83.10;;;;;;6169291;22;87695;-80
2023/09/19 11:54:31;;;;;;;8.15;1.00;;;20.70;82.70;;;;;;6113441;22;88616;-76
2023/09/19 11:56:58;;;;;;;10.32;0.88;;;20.70;81.50;;;;;;6088331;23;88466;-82
2023/09/19 11:59:28;;;;;;;4.43;0.85;;;20.60;83.10;;;;;;6094097;23;88430;-75
2023/09/19 12:01:58;;;;;;;2.53;0.60;;;20.60;81.30;;;;;;6107048;22;89421;-74
2023/09/19 12:04:49;;;;;;;4.60;0.82;;;20.80;81.90;;;;;;6173675;22;95557;-76
2023/09/19 12:07:15;;;;;;;5.63;0.70;;;20.90;80.90;;;;;;6166933;22;87613;-75
2023/09/19 12:09:47;;;;;;;5.45;0.52;;;20.90;81.30;;;;;;6139456;22;88037;-73
2023/09/19 12:12:20;;;;;;;2.55;0.50;;;21.00;80.20;;;;;;6139055;22;89001;-76
2023/09/19 12:14:50;;;;;;;5.35;0.85;;;20.90;80.30;;;;;;6138246;22;87466;-77
2023/09/19 12:17:18;;;;;;;5.75;1.10;;;21.00;80.20;;;;;;6138913;22;90859;-76
2023/09/19 12:19:55;;;;;;;3.22;0.68;;;21.00;80.90;;;;;;6142222;22;87681;-75
2023/09/19 12:22:21;;;;;;;2.65;0.50;;;20.90;79.40;;;;;;6142075;22;88830;-77
2023/09/19 12:24:48;;;;;;;3.33;0.55;;;20.90;78.70;;;;;;6141090;22;87371;-77
2023/09/19 12:27:14;;;;;;;6.80;0.68;;;21.00;79.50;;;;;;6139941;22;87585;-77
2023/09/19 12:29:48;;;;;;;3.20;0.40;;;21.10;79.70;;;;;;6141492;22;88095;-77
2023/09/19 12:32:16;;;;;;;3.75;0.80;;;21.10;78.90;;;;;;6142282;22;88255;-78
2023/09/19 12:34:42;;;;;;;2.50;0.57;;;21.00;79.30;;;;;;6144812;22;87171;-76
2023/09/19 12:37:22;;;;;;;2.85;0.40;;;21.10;79.10;;;;;;6145590;22;87962;-76
2023/09/19 12:39:51;;;;;;;8.05;0.60;;;21.10;78.50;;;;;;6145121;22;91095;-76
2023/09/19 12:42:19;;;;;;;3.38;0.50;;;21.00;78.30;;;;;;6146406;22;88068;-77
2023/09/19 12:44:47;;;;;;;3.15;0.60;;;21.00;78.60;;;;;;6143619;22;87484;-76
2023/09/19 12:47:20;;;;;;;5.40;0.43;;;20.90;78.60;;;;;;6140814;22;88600;-76
2023/09/19 12:50:18;;;;;;;2.60;0.40;;;20.80;78.90;;;;;;6139839;22;92078;-76
2023/09/19 12:52:51;;;;;;;5.78;0.85;;;20.70;79.40;;;;;;6143143;22;90021;-76
2023/09/19 12:55:35;;;;;;;5.28;0.50;;;20.70;81.10;;;;;;6146634;22;87309;-76
2023/09/19 12:58:12;;;;;;;4.55;0.50;;;20.60;79.70;;;;;;6145794;22;87747;-77
2023/09/19 13:00:41;;;;;;;6.10;0.60;;;20.60;81.10;;;;;;6149193;22;92133;-77
2023/09/19 13:03:22;;;;;;;4.07;0.52;;;20.60;81.20;;;;;;6156320;22;89089;-79
2023/09/19 13:06:00;;;;;;;4.03;0.65;;;20.50;81.40;;;;;;6159828;22;86545;-77
2023/09/19 13:08:32;;;;;;;5.45;0.70;;;20.40;80.80;;;;;;6155860;22;87575;-78
2023/09/19 13:11:20;;;;;;;4.28;0.55;;;20.40;82.70;;;;;;6149804;22;88810;-78
2023/09/19 13:13:54;;;;;;;3.78;0.77;;;20.40;81.70;;;;;;6147808;22;88445;-77
2023/09/19 13:16:25;;;;;;;4.70;0.43;;;20.40;82.30;;;;;;6148621;22;87440;-73
2023/09/19 13:18:53;;;;;;;7.45;1.15;;;20.30;82.30;;;;;;6149112;22;87975;-76
2023/09/19 13:21:51;;;;;;;5.50;0.68;;;20.30;81.60;;;;;;6150686;22;88284;-78